Time;durP1;ratioP1;P1;durP2;ratioP2;P2;SDS_P1;SDS_P2;PMS_P1;PMS_P2;Temp;Humidity;BMP_temperature;BMP_pressure;BME280_temperature;BME280_humidity;BME280_pressure;Samples;Min_cycle;Max_cycle;Signal;HPM_P1;HPM_P2
2022/06/04 00:00:21;;;;;;;;;;;;;;;23.13;51.53;95613.16;2065088;28;1903;-64
2022/06/04 00:01:23;;;;;;;;;;;;;;;23.11;51.79;95609.06;2058369;28;1794;-61
2022/06/04 00:02:26;;;;;;;;;;;;;;;23.09;51.64;95608.44;2061391;28;1103;-64
2022/06/04 00:03:28;;;;;;;;;;;;;;;23.10;51.75;95602.84;2060314;28;1623;-61
2022/06/04 00:04:32;;;;;;;;;;;;;;;23.12;51.86;95600.78;2060576;28;1533;-61
2022/06/04 00:05:40;;;;;;;;;;;;;;;23.15;51.88;95602.22;2058468;28;1712;-61
2022/06/04 00:06:44;;;;;;;;;;;;;;;23.14;51.70;95600.59;2057921;28;1545;-61
2022/06/04 00:07:47;;;;;;;;;;;;;;;23.08;51.79;95593.38;2063391;28;1799;-63
2022/06/04 00:08:49;;;;;;;;;;;;;;;22.98;52.14;95594.66;2065948;28;1078;-62
2022/06/04 00:16:31;;;;;;;;;;;;;;;22.89;52.49;95593.25;2062501;28;1585;-61
2022/06/04 00:17:34;;;;;;;;;;;;;;;22.88;52.29;95594.31;2065873;28;1102;-61
2022/06/04 00:18:36;;;;;;;;;;;;;;;22.93;52.36;95596.31;2065866;28;1122;-61
2022/06/04 00:19:40;;;;;;;;;;;;;;;22.96;52.23;95596.75;2065797;28;1054;-64
2022/06/04 00:20:42;;;;;;;;;;;;;;;22.91;52.09;95593.88;2065076;28;1902;-64
2022/06/04 00:21:45;;;;;;;;;;;;;;;22.89;52.41;95595.94;2057719;28;1780;-61
2022/06/04 00:22:47;;;;;;;;;;;;;;;22.90;52.24;95589.53;2057370;28;1075;-62
2022/06/04 00:23:50;;;;;;;;;;;;;;;22.93;52.26;95596.31;2059594;28;1501;-61
2022/06/04 00:24:53;;;;;;;;;;;;;;;22.98;52.03;95589.28;2065398;28;1784;-64
2022/06/04 00:25:57;;;;;;;;;;;;;;;23.04;51.83;95592.16;2056998;28;1103;-61
2022/06/04 00:26:59;;;;;;;;;;;;;;;23.02;52.02;95598.56;2065007;28;1488;-62
2022/06/04 00:28:03;;;;;;;;;;;;;;;23.04;51.85;95593.00;2065843;28;1282;-61
2022/06/04 00:29:07;;;;;;;;;;;;;;;22.98;51.94;95594.66;2064489;28;1788;-61
2022/06/04 00:30:10;;;;;;;;;;;;;;;22.94;52.01;95598.81;2064912;28;1509;-61
2022/06/04 00:31:12;;;;;;;;;;;;;;;22.89;51.75;95593.25;2065711;28;1497;-67
2022/06/04 00:32:16;;;;;;;;;;;;;;;22.88;51.57;95591.63;2057854;28;1011;-61
2022/06/04 00:33:18;;;;;;;;;;;;;;;22.81;51.82;95598.84;2057576;28;1189;-64
2022/06/04 00:34:20;;;;;;;;;;;;;;;22.77;51.94;95595.78;2062963;28;1803;-62
2022/06/04 00:35:24;;;;;;;;;;;;;;;22.75;51.59;95599.69;2059423;28;1592;-61
2022/06/04 00:36:27;;;;;;;;;;;;;;;22.68;51.50;95593.50;2061615;28;1557;-67
2022/06/04 00:37:30;;;;;;;;;;;;;;;22.72;51.68;95600.13;2059861;28;1673;-63
2022/06/04 00:38:34;;;;;;;;;;;;;;;22.69;51.46;95597.84;2064661;28;1799;-61
2022/06/04 00:39:36;;;;;;;;;;;;;;;22.61;51.76;95600.75;2066408;28;976;-61
2022/06/04 00:40:44;;;;;;;;;;;;;;;22.52;51.94;95587.56;2065911;28;1971;-63
2022/06/04 00:41:48;;;;;;;;;;;;;;;22.52;51.82;95579.53;2065175;28;1510;-61
2022/06/04 00:42:51;;;;;;;;;;;;;;;22.52;51.92;95587.56;2065700;28;1078;-61
2022/06/04 00:43:58;;;;;;;;;;;;;;;22.54;51.54;95577.47;2065247;28;1478;-61
2022/06/04 00:45:30;;;;;;;;;;;;;;;22.54;51.55;95574.81;2062370;28;1702;-62
2022/06/04 00:46:53;;;;;;;;;;;;;;;22.57;51.39;95576.25;2060903;28;1870;-61
2022/06/04 00:47:56;;;;;;;;;;;;;;;22.57;51.30;95577.06;2056571;28;1186;-62
2022/06/04 00:48:58;;;;;;;;;;;;;;;22.52;51.27;95571.50;2060962;28;1524;-62
2022/06/04 00:50:01;;;;;;;;;;;;;;;22.51;51.38;95575.22;2063601;28;1913;-62
2022/06/04 00:51:05;;;;;;;;;;;;;;;22.46;51.57;95568.84;2065686;28;1741;-61
2022/06/04 00:52:10;;;;;;;;;;;;;;;22.40;51.92;95565.16;2063812;28;1725;-66
2022/06/04 00:53:14;;;;;;;;;;;;;;;22.46;51.54;95561.63;2057519;28;971;-60
2022/06/04 00:54:15;;;;;;;;;;;;;;;22.50;51.60;95562.03;2062168;28;1532;-61
2022/06/04 00:55:19;;;;;;;;;;;;;;;22.54;51.54;95564.09;2065913;28;1560;-65
2022/06/04 00:56:25;;;;;;;;;;;;;;;22.53;51.28;95567.78;2065755;28;1074;-61
2022/06/04 00:57:58;;;;;;;;;;;;;;;22.59;51.21;95563.44;2064583;28;1390;-61
2022/06/04 00:59:07;;;;;;;;;;;;;;;22.61;51.26;95560.56;2057264;28;1311;-65
2022/06/04 01:00:10;;;;;;;;;;;;;;;22.62;51.28;95563.00;2057921;28;1557;-61
2022/06/04 01:01:20;;;;;;;;;;;;;;;22.63;51.14;95569.22;2065187;28;1997;-62
2022/06/04 01:02:25;;;;;;;;;;;;;;;22.63;51.14;95570.03;2065884;28;1178;-62
2022/06/04 01:03:34;;;;;;;;;;;;;;;22.59;51.27;95566.13;2064812;28;1546;-62
2022/06/04 01:04:48;;;;;;;;;;;;;;;22.60;51.31;95567.78;2064213;28;1561;-62
2022/06/04 01:06:13;;;;;;;;;;;;;;;22.63;51.15;95563.88;2058762;28;1762;-63
2022/06/04 01:07:30;;;;;;;;;;;;;;;22.56;51.34;95564.72;2057607;28;1448;-60
2022/06/04 01:08:48;;;;;;;;;;;;;;;22.58;51.44;95559.13;2057864;28;1835;-62
2022/06/04 01:10:00;;;;;;;;;;;;;;;22.60;51.09;95564.28;2058034;28;1477;-62
2022/06/04 01:11:05;;;;;;;;;;;;;;;22.64;51.16;95569.00;2059898;28;1552;-67
2022/06/04 01:12:26;;;;;;;;;;;;;;;22.61;51.11;95560.56;2061729;28;1517;-63
2022/06/04 01:13:39;;;;;;;;;;;;;;;22.59;51.23;95563.44;2065775;28;1015;-63
2022/06/04 01:14:47;;;;;;;;;;;;;;;22.57;51.12;95557.50;2057329;28;1288;-61
2022/06/04 01:15:59;;;;;;;;;;;;;;;22.53;51.06;95551.72;2057959;28;1066;-62
2022/06/04 01:17:07;;;;;;;;;;;;;;;22.56;51.19;95559.34;2064241;28;1521;-63
2022/06/04 01:18:13;;;;;;;;;;;;;;;22.54;51.30;95550.69;2065762;28;1202;-62
2022/06/04 01:19:23;;;;;;;;;;;;;;;22.52;50.99;95547.41;2064741;28;1772;-62
2022/06/04 01:20:34;;;;;;;;;;;;;;;22.50;50.89;95554.00;2065998;28;1065;-62
2022/06/04 01:21:43;;;;;;;;;;;;;;;22.48;51.15;95551.53;2058434;28;1930;-61
2022/06/04 01:23:05;;;;;;;;;;;;;;;22.46;51.23;95547.44;2049306;28;1583;-62
2022/06/04 01:24:22;;;;;;;;;;;;;;;22.57;50.92;95555.63;2060890;28;1840;-62
2022/06/04 01:25:33;;;;;;;;;;;;;;;22.58;50.95;95541.19;2065541;28;1794;-61
2022/06/04 01:26:45;;;;;;;;;;;;;;;22.57;50.94;95544.91;2057786;28;1358;-61
2022/06/04 01:27:51;;;;;;;;;;;;;;;22.55;50.75;95540.81;2057681;28;1693;-62
2022/06/04 01:28:57;;;;;;;;;;;;;;;22.51;51.03;95548.44;2062667;28;1459;-62
2022/06/04 01:30:02;;;;;;;;;;;;;;;22.44;50.96;95547.63;2065821;28;1263;-63
2022/06/04 01:31:06;;;;;;;;;;;;;;;22.44;51.09;95554.84;2065744;28;1108;-62
2022/06/04 01:32:11;;;;;;;;;;;;;;;22.41;51.30;95549.91;2057870;28;1026;-61
2022/06/04 01:33:17;;;;;;;;;;;;;;;22.49;51.23;95547.81;2053450;28;1523;-67
2022/06/04 01:34:21;;;;;;;;;;;;;;;22.52;51.00;95551.94;2056071;28;1503;-62
2022/06/04 01:35:26;;;;;;;;;;;;;;;22.53;50.91;95550.91;2065036;28;1772;-64
2022/06/04 01:36:29;;;;;;;;;;;;;;;22.51;50.72;95551.13;2065351;28;1101;-61
2022/06/04 01:37:35;;;;;;;;;;;;;;;22.57;51.18;95549.47;2065071;28;1533;-62
2022/06/04 01:38:42;;;;;;;;;;;;;;;22.67;50.87;95540.97;2065828;28;1303;-61
2022/06/04 01:41:09;;;;;;;;;;;;;;;22.67;50.67;95546.31;2065168;28;1997;-61
2022/06/04 01:42:12;;;;;;;;;;;;;;;22.61;50.97;95539.94;2063997;28;1766;-65
2022/06/04 01:43:15;;;;;;;;;;;;;;;22.62;50.83;95546.94;2058996;28;1576;-62
2022/06/04 01:44:20;;;;;;;;;;;;;;;22.63;50.96;95545.13;2060564;28;1571;-67
2022/06/04 01:45:24;;;;;;;;;;;;;;;22.62;50.85;95540.78;2055476;28;1451;-61
2022/06/04 01:46:28;;;;;;;;;;;;;;;22.56;50.69;95539.75;2064237;28;1482;-62
2022/06/04 01:47:35;;;;;;;;;;;;;;;22.53;50.78;95543.69;2064757;28;1718;-72
2022/06/04 01:48:38;;;;;;;;;;;;;;;22.66;50.80;95550.03;2057733;28;1102;-69
2022/06/04 01:49:43;;;;;;;;;;;;;;;22.72;50.65;95546.53;2061754;28;1307;-71
2022/06/04 01:50:49;;;;;;;;;;;;;;;22.69;50.60;95549.63;2065029;28;1674;-69
2022/06/04 01:51:52;;;;;;;;;;;;;;;22.60;50.74;95548.22;2062786;28;1729;-69
2022/06/04 01:52:58;;;;;;;;;;;;;;;22.55;50.88;95546.16;2057475;28;1604;-71
2022/06/04 01:54:04;;;;;;;;;;;;;;;22.53;50.92;95548.22;2058124;28;1563;-69
2022/06/04 01:55:08;;;;;;;;;;;;;;;22.55;50.92;95549.66;2058947;28;1851;-69
2022/06/04 01:56:12;;;;;;;;;;;;;;;22.56;50.93;95542.44;2061268;28;989;-70
2022/06/04 01:57:19;;;;;;;;;;;;;;;22.54;51.08;95540.00;2060032;28;1426;-70
2022/06/04 01:58:23;;;;;;;;;;;;;;;22.49;51.18;95544.31;2064357;28;1572;-69
2022/06/04 01:59:27;;;;;;;;;;;;;;;22.54;51.17;95533.81;2065761;28;1188;-70
2022/06/04 02:00:33;;;;;;;;;;;;;;;22.57;50.99;95542.25;2064136;28;1721;-70
2022/06/04 02:01:36;;;;;;;;;;;;;;;22.64;51.02;95542.22;2065654;28;1968;-71
2022/06/04 02:02:41;;;;;;;;;;;;;;;22.60;50.68;95534.81;2064972;28;1502;-72
2022/06/04 02:03:47;;;;;;;;;;;;;;;22.52;50.94;95546.59;2057797;28;1007;-69
2022/06/04 02:04:50;;;;;;;;;;;;;;;22.46;51.17;95540.22;2058469;28;1536;-71
2022/06/04 02:05:57;;;;;;;;;;;;;;;22.48;51.28;95551.53;2059368;28;1465;-66
2022/06/04 02:08:24;;;;;;;;;;;;;;;22.38;51.61;95551.16;2053331;28;1089;-72
2022/06/04 02:09:26;;;;;;;;;;;;;;;22.29;51.56;95558.59;2063735;28;1462;-72
2022/06/04 02:10:31;;;;;;;;;;;;;;;22.31;51.61;95556.53;2066459;28;1655;-72
2022/06/04 02:11:33;;;;;;;;;;;;;;;22.38;51.68;95564.53;2066987;28;1050;-72
2022/06/04 02:12:39;;;;;;;;;;;;;;;22.44;51.29;95568.22;2065555;28;1484;-72
2022/06/04 02:13:42;;;;;;;;;;;;;;;22.45;51.12;95570.72;2066737;28;1061;-73
2022/06/04 02:14:45;;;;;;;;;;;;;;;22.50;51.18;95570.88;2064933;28;1773;-72
2022/06/04 02:15:49;;;;;;;;;;;;;;;22.41;51.13;95577.50;2067056;28;1150;-72
2022/06/04 02:16:54;;;;;;;;;;;;;;;22.31;51.20;95577.94;2065635;28;1550;-74
2022/06/04 02:17:57;;;;;;;;;;;;;;;22.25;51.15;95577.94;2066442;28;1642;-72
2022/06/04 02:19:01;;;;;;;;;;;;;;;22.27;51.40;95581.25;2062102;28;1107;-71
2022/06/04 02:20:03;;;;;;;;;;;;;;;22.36;51.09;95590.69;2062619;28;1081;-71
2022/06/04 02:21:06;;;;;;;;;;;;;;;22.25;51.04;95584.13;2064819;28;1465;-75
2022/06/04 02:22:08;;;;;;;;;;;;;;;22.26;51.14;95591.13;2066915;28;1910;-75
2022/06/04 02:23:11;;;;;;;;;;;;;;;22.34;51.10;95590.91;2067256;28;963;-73
2022/06/04 02:24:13;;;;;;;;;;;;;;;22.32;51.27;95597.50;2066202;28;1525;-73
2022/06/04 02:25:16;;;;;;;;;;;;;;;22.31;51.24;95604.72;2061077;28;1774;-72
2022/06/04 02:26:19;;;;;;;;;;;;;;;22.32;50.99;95610.91;2059951;28;1489;-73
2022/06/04 02:27:21;;;;;;;;;;;;;;;22.36;51.24;95609.44;2066250;28;1453;-73
2022/06/04 02:28:26;;;;;;;;;;;;;;;22.42;51.07;95610.47;2067086;28;1097;-73
2022/06/04 02:29:27;;;;;;;;;;;;;;;22.38;51.15;95607.38;2065230;28;1710;-73
2022/06/04 02:30:38;;;;;;;;;;;;;;;22.43;50.88;95612.94;2054655;28;1524;-71
2022/06/04 02:31:43;;;;;;;;;;;;;;;22.39;50.72;95614.38;2061653;28;1575;-73
2022/06/04 02:32:53;;;;;;;;;;;;;;;22.35;50.53;95613.16;2066758;28;1731;-73
2022/06/04 02:33:58;;;;;;;;;;;;;;;22.29;50.58;95611.31;2067244;28;1259;-73
2022/06/04 02:35:03;;;;;;;;;;;;;;;22.24;50.77;95613.78;2066530;28;1081;-72
2022/06/04 02:36:06;;;;;;;;;;;;;;;22.20;50.62;95613.38;2065438;28;1514;-69
2022/06/04 02:37:14;;;;;;;;;;;;;;;22.12;50.66;95611.72;2065974;28;1513;-69
2022/06/04 02:38:22;;;;;;;;;;;;;;;22.12;50.62;95609.06;2059043;28;1190;-74
2022/06/04 02:39:27;;;;;;;;;;;;;;;22.22;50.71;95613.97;2064351;28;1569;-73
2022/06/04 02:40:31;;;;;;;;;;;;;;;22.30;50.52;95605.72;2061023;28;1495;-73
2022/06/04 02:41:38;;;;;;;;;;;;;;;22.38;50.50;95607.38;2062665;28;1070;-73
2022/06/04 02:42:44;;;;;;;;;;;;;;;22.44;50.43;95609.22;2060275;28;1906;-73
2022/06/04 02:43:51;;;;;;;;;;;;;;;22.43;50.16;95612.94;2067324;28;1109;-73
2022/06/04 02:44:57;;;;;;;;;;;;;;;22.43;50.25;95607.59;2065448;28;1676;-73
2022/06/04 02:46:02;;;;;;;;;;;;;;;22.44;50.31;95619.94;2066151;28;1424;-73
2022/06/04 02:47:08;;;;;;;;;;;;;;;22.40;50.48;95613.34;2066353;28;1461;-73
2022/06/04 02:48:15;;;;;;;;;;;;;;;22.43;50.49;95610.25;2062016;28;1489;-73
2022/06/04 02:49:20;;;;;;;;;;;;;;;22.46;50.11;95617.88;2059936;28;1389;-65
2022/06/04 02:50:26;;;;;;;;;;;;;;;22.41;50.29;95615.00;2064906;28;1788;-74
2022/06/04 02:51:30;;;;;;;;;;;;;;;22.37;50.34;95613.78;2066871;28;987;-72
2022/06/04 02:52:33;;;;;;;;;;;;;;;22.34;50.43;95615.00;2065877;28;1591;-72
2022/06/04 02:53:36;;;;;;;;;;;;;;;22.20;50.49;95613.38;2059397;28;1007;-70
2022/06/04 02:54:41;;;;;;;;;;;;;;;22.09;50.67;95605.97;2066685;28;1261;-69
2022/06/04 02:55:47;;;;;;;;;;;;;;;22.04;50.65;95608.44;2065991;28;1639;-70
2022/06/04 02:56:50;;;;;;;;;;;;;;;22.06;50.87;95603.72;2064820;28;1399;-72
2022/06/04 02:57:58;;;;;;;;;;;;;;;22.07;50.89;95597.31;2065720;28;1475;-69
2022/06/04 02:59:05;;;;;;;;;;;;;;;22.15;50.87;95604.31;2066793;28;1335;-71
2022/06/04 03:00:08;;;;;;;;;;;;;;;22.01;51.23;95600.81;2065530;28;1536;-71
2022/06/04 03:01:11;;;;;;;;;;;;;;;21.94;51.23;95603.47;2063937;28;1726;-71
2022/06/04 03:02:15;;;;;;;;;;;;;;;22.00;51.09;95601.88;2067096;28;1118;-70
2022/06/04 03:03:18;;;;;;;;;;;;;;;21.94;51.24;95599.97;2064847;28;1503;-70
2022/06/04 03:04:20;;;;;;;;;;;;;;;21.86;51.75;95606.34;2062527;28;1257;-70
2022/06/04 03:05:24;;;;;;;;;;;;;;;21.84;51.60;95600.38;2059639;28;1490;-70
2022/06/04 03:06:27;;;;;;;;;;;;;;;21.85;51.60;95600.19;2065365;28;1523;-70
2022/06/04 03:07:30;;;;;;;;;;;;;;;21.87;51.69;95602.63;2066182;28;1655;-70
2022/06/04 03:08:34;;;;;;;;;;;;;;;21.89;51.93;95600.59;2068289;28;1156;-70
2022/06/04 03:09:38;;;;;;;;;;;;;;;21.95;51.56;95602.47;2066303;28;1794;-68
2022/06/04 03:10:40;;;;;;;;;;;;;;;21.97;51.44;95596.91;2062276;28;1689;-70
2022/06/04 03:11:43;;;;;;;;;;;;;;;21.96;51.74;95598.75;2066207;28;1426;-66
2022/06/04 03:12:46;;;;;;;;;;;;;;;21.96;51.57;95597.94;2059824;28;1554;-70
2022/06/04 03:13:48;;;;;;;;;;;;;;;21.86;51.63;95590.31;2063015;28;1521;-69
2022/06/04 03:14:54;;;;;;;;;;;;;;;21.84;51.65;95592.34;2064889;28;1595;-71
2022/06/04 03:15:56;;;;;;;;;;;;;;;21.78;51.80;95594.00;2053327;28;1059;-70
2022/06/04 03:16:59;;;;;;;;;;;;;;;21.78;51.78;95590.50;2060648;28;1475;-70
2022/06/04 03:18:00;;;;;;;;;;;;;;;21.79;51.93;95584.94;2066710;28;1505;-70
2022/06/04 03:19:03;;;;;;;;;;;;;;;21.78;51.96;95590.50;2066491;28;1516;-70
2022/06/04 03:20:07;;;;;;;;;;;;;;;21.77;51.85;95587.00;2065529;28;1778;-72
2022/06/04 03:21:10;;;;;;;;;;;;;;;21.73;51.99;95579.59;2066096;28;1119;-68
2022/06/04 03:22:12;;;;;;;;;;;;;;;21.68;52.28;95585.53;2066778;28;1122;-71
2022/06/04 03:23:15;;;;;;;;;;;;;;;21.69;52.06;95579.19;2066637;28;1987;-70
2022/06/04 03:24:17;;;;;;;;;;;;;;;21.73;51.53;95574.25;2065947;28;1377;-70
2022/06/04 03:25:20;;;;;;;;;;;;;;;21.68;52.06;95573.03;2062584;28;1481;-68
2022/06/04 03:26:22;;;;;;;;;;;;;;;21.71;51.73;95570.94;2058168;28;1070;-71
2022/06/04 03:27:25;;;;;;;;;;;;;;;21.70;51.76;95569.31;2056794;28;1608;-70
2022/06/04 03:28:27;;;;;;;;;;;;;;;21.74;51.46;95570.53;2065255;28;1491;-71
2022/06/04 03:29:29;;;;;;;;;;;;;;;21.77;51.59;95570.97;2066469;28;1065;-68
2022/06/04 03:30:34;;;;;;;;;;;;;;;21.72;51.38;95567.25;2064102;28;1714;-69
2022/06/04 03:31:37;;;;;;;;;;;;;;;21.68;51.48;95575.69;2066300;28;1114;-68
2022/06/04 03:32:39;;;;;;;;;;;;;;;21.67;51.60;95574.03;2066515;28;1118;-67
2022/06/04 03:33:42;;;;;;;;;;;;;;;21.68;51.65;95566.81;2066531;28;1058;-67
2022/06/04 03:34:44;;;;;;;;;;;;;;;21.65;51.60;95568.09;2065231;28;1408;-67
2022/06/04 03:35:47;;;;;;;;;;;;;;;21.62;51.50;95564.97;2063206;28;1534;-67
2022/06/04 03:36:49;;;;;;;;;;;;;;;21.61;51.68;95566.81;2058177;28;1098;-67
2022/06/04 03:37:51;;;;;;;;;;;;;;;21.59;51.82;95563.53;2058490;28;1127;-67
2022/06/04 03:38:55;;;;;;;;;;;;;;;21.58;51.84;95566.41;2049123;28;1726;-67
2022/06/04 03:39:57;;;;;;;;;;;;;;;21.55;51.77;95567.66;2059439;28;1808;-64
2022/06/04 03:41:00;;;;;;;;;;;;;;;21.55;51.61;95562.31;2065777;28;1422;-67
2022/06/04 03:42:02;;;;;;;;;;;;;;;21.60;51.79;95573.22;2066014;28;1184;-68
2022/06/04 03:43:05;;;;;;;;;;;;;;;21.58;51.71;95561.88;2058140;28;1902;-66
2022/06/04 03:44:07;;;;;;;;;;;;;;;21.58;51.75;95567.25;2064329;28;1815;-67
2022/06/04 03:45:11;;;;;;;;;;;;;;;21.59;51.57;95560.84;2063501;28;1801;-68
2022/06/04 03:46:14;;;;;;;;;;;;;;;21.68;51.42;95566.81;2057733;28;1569;-67
2022/06/04 03:47:18;;;;;;;;;;;;;;;21.73;51.34;95568.91;2058201;28;1162;-67
2022/06/04 03:48:22;;;;;;;;;;;;;;;21.84;51.34;95562.94;2063706;28;1509;-68
2022/06/04 03:49:24;;;;;;;;;;;;;;;21.86;51.44;95568.91;2062276;28;1454;-67
2022/06/04 03:50:27;;;;;;;;;;;;;;;21.92;51.46;95568.06;2059342;28;1699;-68
2022/06/04 03:51:29;;;;;;;;;;;;;;;21.90;51.25;95568.25;2064866;28;1819;-67
2022/06/04 03:52:32;;;;;;;;;;;;;;;21.85;51.24;95567.25;2066131;28;2023;-69
2022/06/04 03:53:33;;;;;;;;;;;;;;;21.86;51.56;95566.22;2058473;28;1190;-67
2022/06/04 03:54:55;;;;;;;;;;;;;;;21.86;51.50;95566.22;2065900;28;1466;-67
2022/06/04 03:55:57;;;;;;;;;;;;;;;21.80;51.46;95565.19;2060268;28;1482;-67
2022/06/04 03:58:16;;;;;;;;;;;;;;;21.72;51.85;95568.06;2063958;28;1533;-67
2022/06/04 03:59:18;;;;;;;;;;;;;;;21.72;51.96;95567.25;2065277;28;1243;-67
2022/06/04 04:00:41;;;;;;;;;;;;;;;21.85;51.77;95573.44;2064747;28;1427;-67
2022/06/04 04:01:52;;;;;;;;;;;;;;;21.85;51.75;95577.94;2053051;28;1516;-65
2022/06/04 04:02:56;;;;;;;;;;;;;;;21.73;51.80;95574.25;2057741;28;1490;-67
2022/06/04 04:03:59;;;;;;;;;;;;;;;21.69;51.95;95584.53;2058225;28;1907;-66
2022/06/04 04:05:02;;;;;;;;;;;;;;;21.66;52.20;95582.28;2058018;28;1281;-67
2022/06/04 04:06:05;;;;;;;;;;;;;;;21.72;52.20;95583.31;2059628;28;1518;-67
2022/06/04 04:07:07;;;;;;;;;;;;;;;21.80;52.06;95580.44;2061510;28;1598;-64
2022/06/04 04:08:10;;;;;;;;;;;;;;;21.82;51.79;95578.34;2058599;28;1281;-68
2022/06/04 04:09:12;;;;;;;;;;;;;;;21.82;51.78;95583.69;2058300;28;1126;-67
2022/06/04 04:10:15;;;;;;;;;;;;;;;21.78;52.31;95577.94;2060657;28;2103;-66
2022/06/04 04:11:18;;;;;;;;;;;;;;;21.73;52.20;95579.59;2066376;28;1294;-64
2022/06/04 04:12:21;;;;;;;;;;;;;;;21.70;52.16;95580.81;2059250;28;1532;-66
2022/06/04 04:13:24;;;;;;;;;;;;;;;21.64;52.31;95579.78;2053829;28;1788;-67
2022/06/04 04:14:26;;;;;;;;;;;;;;;21.62;52.69;95575.66;2058540;28;1413;-67
2022/06/04 04:15:29;;;;;;;;;;;;;;;21.64;52.40;95590.47;2060623;28;1465;-66
2022/06/04 04:16:31;;;;;;;;;;;;;;;21.60;52.67;95575.88;2063265;28;1536;-67
2022/06/04 04:17:39;;;;;;;;;;;;;;;21.58;52.81;95582.47;2056030;28;1193;-67
2022/06/04 04:18:42;;;;;;;;;;;;;;;21.60;52.91;95583.91;2058187;28;1157;-67
2022/06/04 04:19:44;;;;;;;;;;;;;;;21.64;52.57;95587.81;2063951;28;1118;-66
2022/06/04 04:20:48;;;;;;;;;;;;;;;21.61;52.95;95587.41;2062429;28;1447;-66
2022/06/04 04:21:49;;;;;;;;;;;;;;;21.65;52.89;95591.31;2056094;28;1118;-64
2022/06/04 04:22:53;;;;;;;;;;;;;;;21.74;52.73;95589.25;2058248;28;1430;-66
2022/06/04 04:23:56;;;;;;;;;;;;;;;21.78;52.53;95591.31;2053638;28;1914;-65
2022/06/04 04:24:57;;;;;;;;;;;;;;;21.79;52.50;95589.47;2058663;28;1798;-64
2022/06/04 04:26:00;;;;;;;;;;;;;;;21.72;52.79;95588.66;2062719;28;1537;-66
2022/06/04 04:27:02;;;;;;;;;;;;;;;21.68;53.17;95597.09;2059590;28;1543;-67
2022/06/04 04:28:06;;;;;;;;;;;;;;;21.68;53.17;95590.88;2055924;28;1082;-66
2022/06/04 04:29:08;;;;;;;;;;;;;;;21.67;53.21;95599.94;2055872;28;1090;-66
2022/06/04 04:30:12;;;;;;;;;;;;;;;22.06;52.27;95601.84;2054633;28;1579;-70
2022/06/04 04:31:15;;;;;;;;;;;;;;;22.27;51.69;95602.66;2059123;28;1164;-68
2022/06/04 04:32:18;;;;;;;;;;;;;;;22.25;51.64;95599.34;2063275;28;1047;-68
2022/06/04 04:33:22;;;;;;;;;;;;;;;22.32;51.44;95602.84;2061454;28;1409;-67
2022/06/04 04:34:24;;;;;;;;;;;;;;;22.20;51.57;95601.84;2061670;28;1373;-67
2022/06/04 04:35:28;;;;;;;;;;;;;;;22.05;52.17;95608.25;2058355;28;1127;-65
2022/06/04 04:36:30;;;;;;;;;;;;;;;21.89;52.54;95605.94;2060297;28;1493;-68
2022/06/04 04:37:33;;;;;;;;;;;;;;;21.85;52.57;95607.38;2063602;28;1011;-68
2022/06/04 04:38:35;;;;;;;;;;;;;;;21.79;52.91;95609.00;2065480;28;1207;-68
2022/06/04 04:39:38;;;;;;;;;;;;;;;21.71;53.25;95614.56;2057731;28;1178;-66
2022/06/04 04:40:41;;;;;;;;;;;;;;;21.69;53.20;95613.94;2057453;28;1719;-65
2022/06/04 04:41:43;;;;;;;;;;;;;;;21.68;53.30;95621.16;2057271;28;1537;-68
2022/06/04 04:42:45;;;;;;;;;;;;;;;21.70;53.53;95618.25;2058224;28;1765;-65
2022/06/04 04:43:50;;;;;;;;;;;;;;;21.78;53.70;95619.94;2062535;28;1899;-65
2022/06/04 04:44:53;;;;;;;;;;;;;;;21.86;53.61;95619.72;2061617;28;1765;-75
2022/06/04 04:46:00;;;;;;;;;;;;;;;21.83;53.31;95628.16;2065395;28;1619;-65
2022/06/04 04:47:03;;;;;;;;;;;;;;;21.79;53.54;95621.56;2053712;28;1466;-68
2022/06/04 04:48:06;;;;;;;;;;;;;;;21.75;53.43;95631.03;2063534;28;1423;-67
2022/06/04 04:49:09;;;;;;;;;;;;;;;21.81;53.66;95627.53;2061716;28;1301;-66
2022/06/04 04:50:13;;;;;;;;;;;;;;;21.92;53.08;95626.13;2057612;28;1176;-66
2022/06/04 04:51:16;;;;;;;;;;;;;;;22.08;52.81;95645.31;2057598;28;1034;-73
2022/06/04 04:52:19;;;;;;;;;;;;;;;22.30;52.22;95639.72;2057756;28;1113;-66
2022/06/04 04:53:23;;;;;;;;;;;;;;;22.37;52.27;95651.25;2057543;28;1377;-66
2022/06/04 04:54:25;;;;;;;;;;;;;;;22.47;52.29;95651.63;2058053;28;1431;-67
2022/06/04 04:55:27;;;;;;;;;;;;;;;22.46;53.08;95654.53;2058997;28;1648;-65
2022/06/04 04:56:29;;;;;;;;;;;;;;;22.39;53.00;95656.38;2062376;28;1677;-66
2022/06/04 04:57:32;;;;;;;;;;;;;;;22.39;52.91;95653.72;2061731;28;1413;-67
2022/06/04 04:58:34;;;;;;;;;;;;;;;22.18;53.39;95654.75;2055866;28;1608;-66
2022/06/04 04:59:37;;;;;;;;;;;;;;;22.15;53.37;95653.31;2057346;28;1295;-67
2022/06/04 05:00:39;;;;;;;;;;;;;;;22.11;53.57;95652.91;2057250;28;1145;-69
2022/06/04 05:01:42;;;;;;;;;;;;;;;22.06;53.57;95650.03;2059292;28;1960;-68
2022/06/04 05:02:45;;;;;;;;;;;;;;;22.17;53.46;95650.41;2064843;28;971;-64
2022/06/04 05:03:47;;;;;;;;;;;;;;;22.28;52.80;95645.28;2064102;28;1550;-68
2022/06/04 05:04:51;;;;;;;;;;;;;;;22.34;53.17;95644.47;2064458;28;1985;-67
2022/06/04 05:05:57;;;;;;;;;;;;;;;22.29;53.19;95646.94;2064861;28;1031;-70
2022/06/04 05:07:00;;;;;;;;;;;;;;;22.59;52.68;95641.13;2064924;28;836;-68
2022/06/04 05:08:02;;;;;;;;;;;;;;;22.47;52.47;95646.28;2065672;28;1034;-71
2022/06/04 05:09:04;;;;;;;;;;;;;;;22.28;52.60;95644.44;2061305;28;1077;-71
2022/06/04 05:10:07;;;;;;;;;;;;;;;22.29;53.25;95649.59;2060823;28;1172;-75
2022/06/04 05:11:11;;;;;;;;;;;;;;;22.25;53.14;95643.03;2065651;28;1006;-68
2022/06/04 05:12:14;;;;;;;;;;;;;;;22.31;53.26;95641.38;2065582;28;1182;-70
2022/06/04 05:13:15;;;;;;;;;;;;;;;22.27;53.26;95645.50;2066144;28;1078;-65
2022/06/04 05:14:19;;;;;;;;;;;;;;;22.31;53.02;95644.06;2065642;28;1050;-72
2022/06/04 05:15:21;;;;;;;;;;;;;;;22.37;53.06;95645.91;2065670;28;1062;-72
2022/06/04 05:16:26;;;;;;;;;;;;;;;22.51;52.83;95644.03;2065859;28;1130;-69
2022/06/04 05:17:28;;;;;;;;;;;;;;;22.57;52.76;95645.88;2065267;28;1278;-70
2022/06/04 05:18:31;;;;;;;;;;;;;;;22.52;53.04;95643.81;2065263;28;1553;-70
2022/06/04 05:19:33;;;;;;;;;;;;;;;22.43;53.05;95645.06;2065537;28;1069;-68
2022/06/04 05:20:37;;;;;;;;;;;;;;;22.40;53.15;95642.81;2060992;28;1122;-70
2022/06/04 05:21:40;;;;;;;;;;;;;;;22.46;53.02;95643.84;2061127;28;1186;-70
2022/06/04 05:22:43;;;;;;;;;;;;;;;22.51;53.03;95641.38;2065432;28;983;-69
2022/06/04 05:23:45;;;;;;;;;;;;;;;22.55;52.82;95642.56;2065979;28;1358;-70
2022/06/04 05:24:48;;;;;;;;;;;;;;;22.54;53.16;95638.25;2065448;28;1981;-70
2022/06/04 05:25:50;;;;;;;;;;;;;;;22.53;53.19;95642.78;2065297;28;998;-70
2022/06/04 05:26:53;;;;;;;;;;;;;;;22.61;52.96;95644.41;2065899;28;1054;-70
2022/06/04 05:27:55;;;;;;;;;;;;;;;22.63;52.97;95646.91;2065083;28;1643;-70
2022/06/04 05:28:58;;;;;;;;;;;;;;;22.62;53.03;95642.56;2065926;28;1154;-70
2022/06/04 05:30:01;;;;;;;;;;;;;;;22.67;53.00;95656.16;2065597;28;1078;-70
2022/06/04 05:31:03;;;;;;;;;;;;;;;22.68;53.22;95649.75;2065480;28;1082;-69
2022/06/04 05:32:06;;;;;;;;;;;;;;;22.74;52.59;95648.97;2063610;28;1686;-70
2022/06/04 05:33:08;;;;;;;;;;;;;;;22.81;52.60;95651.63;2060536;28;1710;-70
2022/06/04 05:34:11;;;;;;;;;;;;;;;22.85;52.56;95647.47;2065502;28;1068;-72
2022/06/04 05:35:13;;;;;;;;;;;;;;;22.88;52.53;95650.56;2065399;28;1082;-67
2022/06/04 05:36:17;;;;;;;;;;;;;;;22.99;52.38;95649.06;2065530;28;1006;-68
2022/06/04 05:37:19;;;;;;;;;;;;;;;23.04;52.02;95651.13;2065987;28;1102;-70
2022/06/04 05:38:22;;;;;;;;;;;;;;;23.10;51.91;95651.09;2065490;28;1002;-67
2022/06/04 05:39:25;;;;;;;;;;;;;;;23.16;52.06;95649.44;2065466;28;1161;-66
2022/06/04 05:40:27;;;;;;;;;;;;;;;23.16;52.04;95647.59;2065226;28;1002;-68
2022/06/04 05:41:30;;;;;;;;;;;;;;;23.18;51.83;95650.06;2065426;28;991;-71
2022/06/04 05:42:32;;;;;;;;;;;;;;;23.18;51.93;95647.38;2065608;28;1130;-71
2022/06/04 05:43:35;;;;;;;;;;;;;;;23.18;52.00;95642.81;2061305;28;1112;-69
2022/06/04 05:44:37;;;;;;;;;;;;;;;23.22;51.58;95643.25;2064707;28;1164;-71
2022/06/04 05:45:42;;;;;;;;;;;;;;;23.16;51.57;95655.63;2065393;28;2027;-71
2022/06/04 05:46:44;;;;;;;;;;;;;;;23.16;51.63;95649.44;2061568;28;1523;-71
2022/06/04 05:47:52;;;;;;;;;;;;;;;23.18;51.80;95650.06;2064780;28;1819;-71
2022/06/04 05:48:53;;;;;;;;;;;;;;;23.25;51.73;95648.19;2067021;28;1008;-70
2022/06/04 05:49:56;;;;;;;;;;;;;;;23.21;51.40;95653.13;2066794;28;1087;-71
2022/06/04 05:50:58;;;;;;;;;;;;;;;23.12;51.37;95632.13;2061515;28;1501;-71